Homeland, California
Current Conditions -  °F | °C
As of 10:15 AM on Thursday 23 Oct 2014 (Local Time) from KF70 Reporting Station
Clear Clear  
Wind Chill: 75°   Ceiling: Unl
Heat Index: 75°   Visibility: 10mi
Dew Point: 37°   Wind: 0mph
Humidity: 25%   Direction: NA
Pressure: 30.03"   Gusts: NA
Location:  33.74°N, 117.11°W
Report Text: KF70 231715Z AUTO 00000KT 10SM CLR 24/03 A3003 RMK AO1
Loading
Personal Weather Stations






























Interactive Weather Map
Tropical Storm Tracking
New forecast layout! Learn more

10-Day Weather Forecast

Advertisements
Track Severe Weather on mobile